sensor_id;sensor_type;location;lat;lon;timestamp;P1;durP1;ratioP1;P2;durP2;ratioP2
42886;SDS011;29032;56.028;92.904;2023-05-20T00:03:25;11.63;;;6.53;;
42886;SDS011;29032;56.028;92.904;2023-05-20T00:08:27;10.83;;;7.37;;
42886;SDS011;29032;56.028;92.904;2023-05-20T00:13:48;11.60;;;7.70;;
42886;SDS011;29032;56.028;92.904;2023-05-20T00:19:09;12.90;;;7.93;;
42886;SDS011;29032;56.028;92.904;2023-05-20T00:24:11;11.60;;;7.40;;
42886;SDS011;29032;56.028;92.904;2023-05-20T00:34:35;6.53;;;5.33;;
42886;SDS011;29032;56.028;92.904;2023-05-20T00:39:55;9.87;;;6.00;;
42886;SDS011;29032;56.028;92.904;2023-05-20T00:44:59;5.80;;;5.20;;
42886;SDS011;29032;56.028;92.904;2023-05-20T00:50:01;6.07;;;5.17;;
42886;SDS011;29032;56.028;92.904;2023-05-20T00:55:04;5.83;;;4.70;;
42886;SDS011;29032;56.028;92.904;2023-05-20T01:00:08;8.63;;;4.80;;
42886;SDS011;29032;56.028;92.904;2023-05-20T01:05:11;7.67;;;5.37;;
42886;SDS011;29032;56.028;92.904;2023-05-20T01:10:14;12.67;;;4.97;;
42886;SDS011;29032;56.028;92.904;2023-05-20T01:15:17;7.80;;;4.60;;
42886;SDS011;29032;56.028;92.904;2023-05-20T01:20:21;9.37;;;4.90;;
42886;SDS011;29032;56.028;92.904;2023-05-20T01:25:25;7.73;;;4.53;;
42886;SDS011;29032;56.028;92.904;2023-05-20T01:30:28;6.63;;;4.70;;
42886;SDS011;29032;56.028;92.904;2023-05-20T01:35:33;9.57;;;4.20;;
42886;SDS011;29032;56.028;92.904;2023-05-20T01:40:37;5.77;;;3.83;;
42886;SDS011;29032;56.028;92.904;2023-05-20T01:51:01;5.93;;;4.37;;
42886;SDS011;29032;56.028;92.904;2023-05-20T02:01:24;6.87;;;5.10;;
42886;SDS011;29032;56.028;92.904;2023-05-20T02:06:26;5.87;;;4.00;;
42886;SDS011;29032;56.028;92.904;2023-05-20T02:11:48;8.63;;;4.47;;
42886;SDS011;29032;56.028;92.904;2023-05-20T02:16:50;6.97;;;4.57;;
42886;SDS011;29032;56.028;92.904;2023-05-20T02:22:10;13.07;;;6.20;;
42886;SDS011;29032;56.028;92.904;2023-05-20T02:27:14;7.43;;;4.87;;
42886;SDS011;29032;56.028;92.904;2023-05-20T02:32:16;7.90;;;4.50;;
42886;SDS011;29032;56.028;92.904;2023-05-20T02:37:18;6.93;;;4.73;;
42886;SDS011;29032;56.028;92.904;2023-05-20T02:42:21;6.67;;;4.90;;
42886;SDS011;29032;56.028;92.904;2023-05-20T02:47:24;9.10;;;5.47;;
42886;SDS011;29032;56.028;92.904;2023-05-20T02:52:44;8.03;;;4.47;;
42886;SDS011;29032;56.028;92.904;2023-05-20T02:57:48;5.90;;;4.47;;
42886;SDS011;29032;56.028;92.904;2023-05-20T03:02:50;4.97;;;3.70;;
42886;SDS011;29032;56.028;92.904;2023-05-20T03:08:10;5.53;;;3.20;;
42886;SDS011;29032;56.028;92.904;2023-05-20T03:13:14;7.10;;;3.43;;
42886;SDS011;29032;56.028;92.904;2023-05-20T03:18:34;3.73;;;3.13;;
42886;SDS011;29032;56.028;92.904;2023-05-20T03:23:36;3.10;;;2.50;;
42886;SDS011;29032;56.028;92.904;2023-05-20T03:28:40;2.90;;;2.13;;
42886;SDS011;29032;56.028;92.904;2023-05-20T03:33:43;5.03;;;2.87;;
42886;SDS011;29032;56.028;92.904;2023-05-20T03:38:46;3.67;;;2.90;;
42886;SDS011;29032;56.028;92.904;2023-05-20T03:43:49;3.30;;;2.70;;
42886;SDS011;29032;56.028;92.904;2023-05-20T03:48:51;2.50;;;2.30;;
42886;SDS011;29032;56.028;92.904;2023-05-20T03:54:12;3.73;;;2.60;;
42886;SDS011;29032;56.028;92.904;2023-05-20T03:59:17;2.60;;;2.30;;
42886;SDS011;29032;56.028;92.904;2023-05-20T04:04:19;5.27;;;3.57;;
42886;SDS011;29032;56.028;92.904;2023-05-20T04:09:21;3.77;;;2.70;;
42886;SDS011;29032;56.028;92.904;2023-05-20T04:14:25;2.47;;;2.27;;
42886;SDS011;29032;56.028;92.904;2023-05-20T04:19:28;3.37;;;2.50;;
42886;SDS011;29032;56.028;92.904;2023-05-20T04:24:48;3.43;;;2.63;;
42886;SDS011;29032;56.028;92.904;2023-05-20T04:29:52;2.67;;;2.47;;
42886;SDS011;29032;56.028;92.904;2023-05-20T04:35:12;2.73;;;2.43;;
42886;SDS011;29032;56.028;92.904;2023-05-20T04:51:01;2.87;;;2.53;;
42886;SDS011;29032;56.028;92.904;2023-05-20T05:01:27;2.60;;;2.40;;
42886;SDS011;29032;56.028;92.904;2023-05-20T05:06:29;5.50;;;2.80;;
42886;SDS011;29032;56.028;92.904;2023-05-20T05:16:54;4.77;;;2.90;;
42886;SDS011;29032;56.028;92.904;2023-05-20T05:22:15;2.37;;;2.17;;
42886;SDS011;29032;56.028;92.904;2023-05-20T05:27:17;2.30;;;2.10;;
42886;SDS011;29032;56.028;92.904;2023-05-20T05:32:21;4.20;;;2.57;;
42886;SDS011;29032;56.028;92.904;2023-05-20T05:37:23;2.93;;;2.20;;
42886;SDS011;29032;56.028;92.904;2023-05-20T05:42:26;3.57;;;2.47;;
42886;SDS011;29032;56.028;92.904;2023-05-20T05:47:31;3.20;;;2.00;;
42886;SDS011;29032;56.028;92.904;2023-05-20T05:58:14;6.60;;;2.40;;
42886;SDS011;29032;56.028;92.904;2023-05-20T06:03:18;2.38;;;2.17;;
42886;SDS011;29032;56.028;92.904;2023-05-20T06:08:21;2.72;;;2.28;;
42886;SDS011;29032;56.028;92.904;2023-05-20T06:13:23;2.67;;;2.35;;
42886;SDS011;29032;56.028;92.904;2023-05-20T06:18:26;3.80;;;2.30;;
42886;SDS011;29032;56.028;92.904;2023-05-20T06:23:47;3.25;;;2.15;;
42886;SDS011;29032;56.028;92.904;2023-05-20T06:28:49;2.03;;;1.83;;
42886;SDS011;29032;56.028;92.904;2023-05-20T06:33:53;4.75;;;2.15;;
42886;SDS011;29032;56.028;92.904;2023-05-20T06:38:55;4.13;;;2.40;;
42886;SDS011;29032;56.028;92.904;2023-05-20T06:43:58;3.40;;;2.50;;
42886;SDS011;29032;56.028;92.904;2023-05-20T06:49:27;4.57;;;2.35;;
42886;SDS011;29032;56.028;92.904;2023-05-20T06:54:29;5.40;;;2.33;;
42886;SDS011;29032;56.028;92.904;2023-05-20T06:59:32;3.60;;;2.20;;
42886;SDS011;29032;56.028;92.904;2023-05-20T07:04:36;2.95;;;2.50;;
42886;SDS011;29032;56.028;92.904;2023-05-20T07:09:38;4.72;;;2.65;;
42886;SDS011;29032;56.028;92.904;2023-05-20T07:14:41;19.00;;;3.33;;
42886;SDS011;29032;56.028;92.904;2023-05-20T07:25:23;2.40;;;2.20;;
42886;SDS011;29032;56.028;92.904;2023-05-20T07:30:25;3.08;;;2.03;;
42886;SDS011;29032;56.028;92.904;2023-05-20T07:35:49;8.75;;;2.35;;
42886;SDS011;29032;56.028;92.904;2023-05-20T07:40:51;2.45;;;1.92;;
42886;SDS011;29032;56.028;92.904;2023-05-20T07:45:53;4.00;;;2.10;;
42886;SDS011;29032;56.028;92.904;2023-05-20T07:50:57;6.30;;;2.70;;
42886;SDS011;29032;56.028;92.904;2023-05-20T07:56:00;7.07;;;2.40;;
42886;SDS011;29032;56.028;92.904;2023-05-20T08:06:26;7.18;;;2.20;;
42886;SDS011;29032;56.028;92.904;2023-05-20T08:11:46;3.15;;;2.00;;
42886;SDS011;29032;56.028;92.904;2023-05-20T08:17:06;6.22;;;2.20;;
42886;SDS011;29032;56.028;92.904;2023-05-20T08:22:10;7.00;;;2.47;;
42886;SDS011;29032;56.028;92.904;2023-05-20T08:27:12;2.50;;;2.08;;
42886;SDS011;29032;56.028;92.904;2023-05-20T08:32:15;3.38;;;2.10;;
42886;SDS011;29032;56.028;92.904;2023-05-20T08:37:36;2.22;;;1.85;;
42886;SDS011;29032;56.028;92.904;2023-05-20T08:47:59;16.60;;;2.65;;
42886;SDS011;29032;56.028;92.904;2023-05-20T08:53:05;7.40;;;2.15;;
42886;SDS011;29032;56.028;92.904;2023-05-20T08:58:09;2.13;;;1.90;;
42886;SDS011;29032;56.028;92.904;2023-05-20T09:03:11;2.55;;;1.58;;
42886;SDS011;29032;56.028;92.904;2023-05-20T09:08:14;3.80;;;1.65;;
42886;SDS011;29032;56.028;92.904;2023-05-20T09:13:16;5.13;;;2.17;;
42886;SDS011;29032;56.028;92.904;2023-05-20T09:23:40;2.90;;;1.98;;
42886;SDS011;29032;56.028;92.904;2023-05-20T09:28:48;8.18;;;1.77;;
42886;SDS011;29032;56.028;92.904;2023-05-20T09:33:50;12.55;;;2.70;;
42886;SDS011;29032;56.028;92.904;2023-05-20T09:39:13;3.50;;;2.00;;
42886;SDS011;29032;56.028;92.904;2023-05-20T09:44:33;2.63;;;1.85;;
42886;SDS011;29032;56.028;92.904;2023-05-20T09:49:36;2.03;;;1.67;;
42886;SDS011;29032;56.028;92.904;2023-05-20T09:54:40;3.75;;;2.10;;
42886;SDS011;29032;56.028;92.904;2023-05-20T09:59:44;2.60;;;1.95;;
42886;SDS011;29032;56.028;92.904;2023-05-20T10:10:17;2.13;;;1.90;;
42886;SDS011;29032;56.028;92.904;2023-05-20T10:15:31;3.72;;;1.90;;
42886;SDS011;29032;56.028;92.904;2023-05-20T10:20:53;2.90;;;1.73;;
42886;SDS011;29032;56.028;92.904;2023-05-20T10:31:17;2.58;;;1.80;;
42886;SDS011;29032;56.028;92.904;2023-05-20T10:36:22;3.58;;;1.70;;
42886;SDS011;29032;56.028;92.904;2023-05-20T10:41:26;5.43;;;1.60;;
42886;SDS011;29032;56.028;92.904;2023-05-20T10:46:46;6.85;;;2.08;;
42886;SDS011;29032;56.028;92.904;2023-05-20T10:52:02;2.10;;;1.90;;
42886;SDS011;29032;56.028;92.904;2023-05-20T10:57:24;2.97;;;2.20;;
42886;SDS011;29032;56.028;92.904;2023-05-20T11:02:45;2.97;;;2.38;;
42886;SDS011;29032;56.028;92.904;2023-05-20T11:07:49;3.33;;;1.90;;
42886;SDS011;29032;56.028;92.904;2023-05-20T11:12:53;2.30;;;1.67;;
42886;SDS011;29032;56.028;92.904;2023-05-20T11:17:56;9.50;;;2.15;;
42886;SDS011;29032;56.028;92.904;2023-05-20T11:23:19;4.60;;;1.92;;
42886;SDS011;29032;56.028;92.904;2023-05-20T11:28:23;3.35;;;2.30;;
42886;SDS011;29032;56.028;92.904;2023-05-20T11:33:25;6.53;;;2.10;;
42886;SDS011;29032;56.028;92.904;2023-05-20T11:38:27;5.25;;;1.80;;
42886;SDS011;29032;56.028;92.904;2023-05-20T11:43:32;3.78;;;1.67;;
42886;SDS011;29032;56.028;92.904;2023-05-20T11:48:34;3.60;;;1.92;;
42886;SDS011;29032;56.028;92.904;2023-05-20T11:53:36;2.88;;;2.20;;
42886;SDS011;29032;56.028;92.904;2023-05-20T11:59:19;3.85;;;1.83;;
42886;SDS011;29032;56.028;92.904;2023-05-20T12:09:44;15.98;;;3.53;;
42886;SDS011;29032;56.028;92.904;2023-05-20T12:14:48;5.30;;;2.42;;
42886;SDS011;29032;56.028;92.904;2023-05-20T12:19:50;4.00;;;2.15;;
42886;SDS011;29032;56.028;92.904;2023-05-20T12:25:11;3.83;;;1.90;;
42886;SDS011;29032;56.028;92.904;2023-05-20T12:30:34;2.75;;;1.92;;
42886;SDS011;29032;56.028;92.904;2023-05-20T12:35:37;5.07;;;2.10;;
42886;SDS011;29032;56.028;92.904;2023-05-20T12:40:40;3.20;;;2.20;;
42886;SDS011;29032;56.028;92.904;2023-05-20T12:45:43;4.45;;;2.00;;
42886;SDS011;29032;56.028;92.904;2023-05-20T12:51:04;80.28;;;7.97;;
42886;SDS011;29032;56.028;92.904;2023-05-20T12:56:43;4.07;;;2.58;;
42886;SDS011;29032;56.028;92.904;2023-05-20T13:01:46;3.75;;;2.65;;
42886;SDS011;29032;56.028;92.904;2023-05-20T13:06:49;4.75;;;2.25;;
42886;SDS011;29032;56.028;92.904;2023-05-20T13:11:51;3.20;;;2.22;;
42886;SDS011;29032;56.028;92.904;2023-05-20T13:16:55;6.60;;;2.42;;
42886;SDS011;29032;56.028;92.904;2023-05-20T13:21:57;7.32;;;2.83;;
42886;SDS011;29032;56.028;92.904;2023-05-20T13:27:17;4.28;;;2.67;;
42886;SDS011;29032;56.028;92.904;2023-05-20T13:37:59;6.35;;;3.33;;
42886;SDS011;29032;56.028;92.904;2023-05-20T13:43:01;5.78;;;3.30;;
42886;SDS011;29032;56.028;92.904;2023-05-20T13:48:05;8.93;;;2.90;;
42886;SDS011;29032;56.028;92.904;2023-05-20T13:53:07;11.30;;;3.50;;
42886;SDS011;29032;56.028;92.904;2023-05-20T13:58:09;6.82;;;3.70;;
42886;SDS011;29032;56.028;92.904;2023-05-20T14:03:13;9.90;;;3.78;;
42886;SDS011;29032;56.028;92.904;2023-05-20T14:08:15;9.05;;;4.75;;
42886;SDS011;29032;56.028;92.904;2023-05-20T14:13:17;16.23;;;4.40;;
42886;SDS011;29032;56.028;92.904;2023-05-20T14:23:41;15.57;;;4.57;;
42886;SDS011;29032;56.028;92.904;2023-05-20T14:28:43;9.87;;;5.23;;
42886;SDS011;29032;56.028;92.904;2023-05-20T14:33:46;11.00;;;4.73;;
42886;SDS011;29032;56.028;92.904;2023-05-20T14:39:07;9.23;;;4.87;;
42886;SDS011;29032;56.028;92.904;2023-05-20T14:44:09;10.47;;;4.83;;
42886;SDS011;29032;56.028;92.904;2023-05-20T14:49:12;8.83;;;5.00;;
42886;SDS011;29032;56.028;92.904;2023-05-20T14:54:51;11.80;;;6.20;;
42886;SDS011;29032;56.028;92.904;2023-05-20T15:05:17;12.80;;;6.33;;
42886;SDS011;29032;56.028;92.904;2023-05-20T15:10:37;14.37;;;6.10;;
42886;SDS011;29032;56.028;92.904;2023-05-20T15:15:57;10.70;;;6.80;;
42886;SDS011;29032;56.028;92.904;2023-05-20T15:21:01;11.80;;;6.63;;
42886;SDS011;29032;56.028;92.904;2023-05-20T15:26:03;13.40;;;7.27;;
42886;SDS011;29032;56.028;92.904;2023-05-20T15:31:05;13.07;;;7.13;;
42886;SDS011;29032;56.028;92.904;2023-05-20T15:36:09;10.17;;;6.70;;
42886;SDS011;29032;56.028;92.904;2023-05-20T15:41:11;15.90;;;7.07;;
42886;SDS011;29032;56.028;92.904;2023-05-20T15:51:35;24.10;;;8.83;;
42886;SDS011;29032;56.028;92.904;2023-05-20T15:56:37;17.03;;;8.17;;
42886;SDS011;29032;56.028;92.904;2023-05-20T16:01:39;20.13;;;8.40;;
42886;SDS011;29032;56.028;92.904;2023-05-20T16:07:01;19.10;;;8.80;;
42886;SDS011;29032;56.028;92.904;2023-05-20T16:12:04;22.23;;;9.27;;
42886;SDS011;29032;56.028;92.904;2023-05-20T16:17:06;16.20;;;8.23;;
42886;SDS011;29032;56.028;92.904;2023-05-20T16:22:10;19.73;;;8.57;;
42886;SDS011;29032;56.028;92.904;2023-05-20T16:27:12;14.90;;;8.17;;
42886;SDS011;29032;56.028;92.904;2023-05-20T16:32:14;17.83;;;9.40;;
42886;SDS011;29032;56.028;92.904;2023-05-20T16:37:18;18.13;;;10.30;;
42886;SDS011;29032;56.028;92.904;2023-05-20T16:42:20;18.43;;;11.00;;
42886;SDS011;29032;56.028;92.904;2023-05-20T16:47:22;22.33;;;12.90;;
42886;SDS011;29032;56.028;92.904;2023-05-20T16:52:25;20.83;;;13.13;;
42886;SDS011;29032;56.028;92.904;2023-05-20T16:57:27;22.63;;;14.37;;
42886;SDS011;29032;56.028;92.904;2023-05-20T17:02:29;29.60;;;16.50;;
42886;SDS011;29032;56.028;92.904;2023-05-20T17:07:33;24.53;;;15.47;;
42886;SDS011;29032;56.028;92.904;2023-05-20T17:12:35;27.93;;;17.30;;
42886;SDS011;29032;56.028;92.904;2023-05-20T17:17:37;29.40;;;16.40;;
42886;SDS011;29032;56.028;92.904;2023-05-20T17:22:41;32.33;;;18.53;;
42886;SDS011;29032;56.028;92.904;2023-05-20T17:27:43;29.07;;;18.37;;
42886;SDS011;29032;56.028;92.904;2023-05-20T17:32:45;35.73;;;19.57;;
42886;SDS011;29032;56.028;92.904;2023-05-20T17:37:49;32.07;;;17.97;;
42886;SDS011;29032;56.028;92.904;2023-05-20T17:43:28;30.50;;;17.07;;
42886;SDS011;29032;56.028;92.904;2023-05-20T17:48:30;26.60;;;16.13;;
42886;SDS011;29032;56.028;92.904;2023-05-20T17:53:33;26.80;;;15.63;;
42886;SDS011;29032;56.028;92.904;2023-05-20T18:09:17;31.37;;;20.47;;
42886;SDS011;29032;56.028;92.904;2023-05-20T18:19:58;38.73;;;21.97;;
42886;SDS011;29032;56.028;92.904;2023-05-20T18:25:02;37.47;;;23.70;;
42886;SDS011;29032;56.028;92.904;2023-05-20T18:30:05;36.03;;;24.17;;
42886;SDS011;29032;56.028;92.904;2023-05-20T18:35:08;33.10;;;21.37;;
42886;SDS011;29032;56.028;92.904;2023-05-20T18:40:12;33.67;;;22.53;;
42886;SDS011;29032;56.028;92.904;2023-05-20T18:45:14;36.07;;;22.27;;
42886;SDS011;29032;56.028;92.904;2023-05-20T18:50:16;37.90;;;25.40;;
42886;SDS011;29032;56.028;92.904;2023-05-20T18:55:20;45.23;;;27.40;;
42886;SDS011;29032;56.028;92.904;2023-05-20T19:00:40;40.47;;;27.10;;
42886;SDS011;29032;56.028;92.904;2023-05-20T19:05:43;40.33;;;26.27;;
42886;SDS011;29032;56.028;92.904;2023-05-20T19:10:46;46.73;;;25.73;;
42886;SDS011;29032;56.028;92.904;2023-05-20T19:15:48;42.90;;;25.13;;
42886;SDS011;29032;56.028;92.904;2023-05-20T19:20:50;40.07;;;23.97;;
42886;SDS011;29032;56.028;92.904;2023-05-20T19:31:14;34.17;;;22.90;;
42886;SDS011;29032;56.028;92.904;2023-05-20T19:36:16;35.83;;;21.83;;
42886;SDS011;29032;56.028;92.904;2023-05-20T19:41:20;34.37;;;23.27;;
42886;SDS011;29032;56.028;92.904;2023-05-20T19:46:22;37.97;;;22.27;;
42886;SDS011;29032;56.028;92.904;2023-05-20T19:57:04;29.70;;;20.70;;
42886;SDS011;29032;56.028;92.904;2023-05-20T20:02:06;34.37;;;21.97;;
42886;SDS011;29032;56.028;92.904;2023-05-20T20:07:26;29.30;;;21.67;;
42886;SDS011;29032;56.028;92.904;2023-05-20T20:12:30;33.73;;;21.17;;
42886;SDS011;29032;56.028;92.904;2023-05-20T20:17:32;34.87;;;21.63;;
42886;SDS011;29032;56.028;92.904;2023-05-20T20:22:52;37.53;;;22.50;;
42886;SDS011;29032;56.028;92.904;2023-05-20T20:27:56;33.77;;;23.23;;
42886;SDS011;29032;56.028;92.904;2023-05-20T20:32:58;37.33;;;24.33;;
42886;SDS011;29032;56.028;92.904;2023-05-20T20:38:00;44.97;;;23.50;;
42886;SDS011;29032;56.028;92.904;2023-05-20T20:43:04;39.83;;;21.83;;
42886;SDS011;29032;56.028;92.904;2023-05-20T20:48:06;33.20;;;20.73;;
42886;SDS011;29032;56.028;92.904;2023-05-20T20:58:29;31.17;;;19.90;;
42886;SDS011;29032;56.028;92.904;2023-05-20T21:03:50;27.93;;;19.20;;
42886;SDS011;29032;56.028;92.904;2023-05-20T21:08:52;26.10;;;17.47;;
42886;SDS011;29032;56.028;92.904;2023-05-20T21:14:14;32.33;;;18.80;;
42886;SDS011;29032;56.028;92.904;2023-05-20T21:19:16;31.10;;;19.50;;
42886;SDS011;29032;56.028;92.904;2023-05-20T21:24:18;33.60;;;19.87;;
42886;SDS011;29032;56.028;92.904;2023-05-20T21:29:22;31.40;;;19.77;;
42886;SDS011;29032;56.028;92.904;2023-05-20T21:34:24;33.20;;;20.07;;
42886;SDS011;29032;56.028;92.904;2023-05-20T21:39:26;26.87;;;17.20;;
42886;SDS011;29032;56.028;92.904;2023-05-20T21:44:29;31.27;;;16.53;;
42886;SDS011;29032;56.028;92.904;2023-05-20T21:49:50;24.70;;;15.67;;
42886;SDS011;29032;56.028;92.904;2023-05-20T21:54:52;26.87;;;16.60;;
42886;SDS011;29032;56.028;92.904;2023-05-20T21:59:55;25.23;;;16.83;;
42886;SDS011;29032;56.028;92.904;2023-05-20T22:04:57;24.00;;;16.03;;
42886;SDS011;29032;56.028;92.904;2023-05-20T22:10:18;27.73;;;17.27;;
42886;SDS011;29032;56.028;92.904;2023-05-20T22:15:40;24.73;;;15.83;;
42886;SDS011;29032;56.028;92.904;2023-05-20T22:20:42;27.80;;;17.27;;
42886;SDS011;29032;56.028;92.904;2023-05-20T22:25:44;22.73;;;15.83;;
42886;SDS011;29032;56.028;92.904;2023-05-20T22:30:47;21.60;;;15.83;;
42886;SDS011;29032;56.028;92.904;2023-05-20T22:36:08;16.93;;;11.47;;
42886;SDS011;29032;56.028;92.904;2023-05-20T22:41:11;16.57;;;10.73;;
42886;SDS011;29032;56.028;92.904;2023-05-20T22:46:15;17.73;;;12.00;;
42886;SDS011;29032;56.028;92.904;2023-05-20T22:51:16;18.03;;;11.80;;
42886;SDS011;29032;56.028;92.904;2023-05-20T23:01:40;18.97;;;11.50;;
42886;SDS011;29032;56.028;92.904;2023-05-20T23:06:42;19.00;;;12.70;;
42886;SDS011;29032;56.028;92.904;2023-05-20T23:11:45;19.67;;;13.20;;
42886;SDS011;29032;56.028;92.904;2023-05-20T23:16:48;23.77;;;14.30;;
42886;SDS011;29032;56.028;92.904;2023-05-20T23:21:50;20.13;;;14.63;;
42886;SDS011;29032;56.028;92.904;2023-05-20T23:26:52;22.90;;;13.87;;
42886;SDS011;29032;56.028;92.904;2023-05-20T23:31:56;29.27;;;16.60;;
42886;SDS011;29032;56.028;92.904;2023-05-20T23:42:18;27.77;;;15.00;;
42886;SDS011;29032;56.028;92.904;2023-05-20T23:47:22;31.93;;;17.70;;
42886;SDS011;29032;56.028;92.904;2023-05-20T23:57:44;33.03;;;17.23;;
